Terminal Aerodrome Forecast
Issued by NWS

Home | Current Version | Previous Version | Text Only | Print | Product List | Glossary Off
Versions: 1 2 3 4 5 6 7 8 9 10 11 12 13 14 15 16

000
FTUS43 KFGF 291100
TAFBJI
TAF
KBJI 291121Z 2912/3012 32017KT P6SM OVC007
      TEMPO 2912/2915 OVC015
     FM291500 32017KT P6SM BKN015
     FM292100 32015KT P6SM BKN040
     FM300000 34007KT P6SM SCT250=

USA.gov is the U.S. government's official web portal to all federal, state and local government web resources and services.